Time;durP1;ratioP1;P1;durP2;ratioP2;P2;SDS_P1;SDS_P2;PMS_P1;PMS_P2;Temp;Humidity;BMP_temperature;BMP_pressure;BME280_temperature;BME280_humidity;BME280_pressure;Samples;Min_cycle;Max_cycle;Signal;HPM_P1;HPM_P2
2021/07/04 00:02:14;;;;;;;2.88;2.58;;;25.00;40.60;;;;;;4988530;28;20204;-37
2021/07/04 00:04:40;;;;;;;2.97;2.78;;;25.10;40.70;;;;;;4988576;28;20220;-49
2021/07/04 00:07:07;;;;;;;2.90;2.70;;;25.10;40.70;;;;;;4989279;28;20199;-41
2021/07/04 00:09:33;;;;;;;2.85;2.63;;;25.10;40.70;;;;;;4989879;28;20199;-39
2021/07/04 00:12:00;;;;;;;2.40;2.20;;;25.10;40.70;;;;;;4989407;28;20220;-38
2021/07/04 00:14:26;;;;;;;2.67;2.47;;;25.10;40.70;;;;;;4988727;28;20208;-43
2021/07/04 00:16:53;;;;;;;2.65;2.45;;;25.10;40.70;;;;;;4990205;28;20222;-42
2021/07/04 00:19:19;;;;;;;3.10;2.88;;;25.00;40.60;;;;;;4989888;28;20234;-47
2021/07/04 00:21:46;;;;;;;2.97;2.58;;;25.00;40.60;;;;;;4989958;28;20283;-40
2021/07/04 00:24:12;;;;;;;3.20;2.90;;;25.10;40.70;;;;;;4988472;28;20231;-43
2021/07/04 00:26:38;;;;;;;2.47;2.28;;;25.10;40.70;;;;;;4992702;28;20295;-40
2021/07/04 00:29:05;;;;;;;2.80;2.47;;;25.00;40.60;;;;;;4992988;28;20243;-47
2021/07/04 00:31:32;;;;;;;2.97;2.65;;;25.00;40.60;;;;;;4994415;28;20207;-48
2021/07/04 00:33:58;;;;;;;3.38;3.08;;;25.00;40.60;;;;;;4991594;28;20604;-38
2021/07/04 00:36:25;;;;;;;3.47;3.13;;;25.00;40.60;;;;;;4983054;28;20228;-38
2021/07/04 00:38:51;;;;;;;2.70;2.50;;;25.00;40.60;;;;;;4992811;28;20199;-42
2021/07/04 00:41:18;;;;;;;2.90;2.70;;;25.00;40.60;;;;;;4993598;28;20735;-43
2021/07/04 00:43:44;;;;;;;2.70;2.50;;;25.00;40.60;;;;;;4992355;28;20662;-40
2021/07/04 00:46:10;;;;;;;3.55;2.50;;;25.00;40.60;;;;;;4992919;28;20696;-37
2021/07/04 00:48:37;;;;;;;2.60;2.40;;;25.00;40.60;;;;;;4992565;28;20236;-38
2021/07/04 00:51:03;;;;;;;2.88;2.67;;;25.00;40.60;;;;;;4993119;28;20613;-39
2021/07/04 00:53:30;;;;;;;2.70;2.50;;;25.00;40.60;;;;;;4991799;28;20280;-41
2021/07/04 00:55:56;;;;;;;2.92;2.72;;;25.00;40.70;;;;;;4992045;28;20299;-37
2021/07/04 00:58:23;;;;;;;2.70;2.50;;;25.00;40.70;;;;;;4990735;28;20230;-40
2021/07/04 01:00:50;;;;;;;2.55;2.35;;;25.00;40.70;;;;;;4993608;28;20243;-42
2021/07/04 01:03:17;;;;;;;3.05;2.75;;;25.00;40.70;;;;;;4991391;28;20218;-38
2021/07/04 01:05:43;;;;;;;2.85;2.58;;;25.00;40.60;;;;;;4992101;28;20223;-38
2021/07/04 01:08:10;;;;;;;2.53;2.33;;;25.00;40.60;;;;;;4990772;28;20696;-43
2021/07/04 01:10:36;;;;;;;2.72;2.53;;;25.00;40.60;;;;;;4992850;28;20315;-38
2021/07/04 01:13:03;;;;;;;2.60;2.40;;;25.00;40.70;;;;;;4991584;28;20287;-46
2021/07/04 01:15:29;;;;;;;2.75;2.55;;;25.00;40.70;;;;;;4991838;28;20219;-44
2021/07/04 01:17:55;;;;;;;3.00;2.80;;;25.00;40.70;;;;;;4993358;28;20200;-42
2021/07/04 01:20:22;;;;;;;2.70;2.50;;;25.00;40.70;;;;;;4992405;28;20214;-38
2021/07/04 01:22:49;;;;;;;2.72;2.50;;;25.00;40.70;;;;;;4992338;28;20334;-38
2021/07/04 01:25:15;;;;;;;2.80;2.60;;;25.00;40.70;;;;;;4991449;28;20224;-41
2021/07/04 01:27:42;;;;;;;2.90;2.53;;;25.00;40.70;;;;;;4986286;28;20227;-42
2021/07/04 01:30:08;;;;;;;2.47;2.28;;;25.00;40.70;;;;;;4992279;28;20200;-49
2021/07/04 01:32:34;;;;;;;2.53;2.33;;;25.00;40.70;;;;;;4992692;28;20203;-45
2021/07/04 01:35:01;;;;;;;2.60;2.40;;;25.00;40.70;;;;;;4991704;28;20328;-39
2021/07/04 01:37:27;;;;;;;2.90;2.70;;;25.00;41.40;;;;;;4991454;28;20204;-38
2021/07/04 01:39:54;;;;;;;2.50;2.30;;;25.00;40.70;;;;;;4980899;28;20237;-39
2021/07/04 01:42:20;;;;;;;2.67;2.45;;;25.00;40.70;;;;;;4992306;28;20200;-44
2021/07/04 01:44:47;;;;;;;2.72;2.50;;;25.00;40.70;;;;;;4989487;28;20699;-40
2021/07/04 01:47:13;;;;;;;2.67;2.47;;;25.00;40.70;;;;;;4992536;28;20686;-42
2021/07/04 01:49:40;;;;;;;2.95;2.70;;;25.00;40.70;;;;;;4991446;28;20342;-39
2021/07/04 01:52:06;;;;;;;2.70;2.50;;;25.00;40.70;;;;;;4990926;28;20286;-43
2021/07/04 01:54:32;;;;;;;2.88;2.50;;;25.00;40.70;;;;;;4990865;28;20330;-37
2021/07/04 01:56:59;;;;;;;2.85;2.55;;;25.00;40.70;;;;;;4990084;28;20230;-37
2021/07/04 01:59:27;;;;;;;2.75;2.55;;;25.00;41.40;;;;;;4992834;28;20214;-40
2021/07/04 02:01:53;;;;;;;2.67;2.47;;;25.00;40.70;;;;;;4990475;28;20660;-38
2021/07/04 02:04:19;;;;;;;2.85;2.65;;;25.00;40.70;;;;;;4991297;28;20227;-39
2021/07/04 02:06:46;;;;;;;2.97;2.78;;;25.00;40.70;;;;;;4991990;28;20206;-43
2021/07/04 02:09:12;;;;;;;3.05;2.85;;;25.00;40.70;;;;;;4989915;28;20223;-41
2021/07/04 02:11:39;;;;;;;2.40;2.20;;;25.00;40.70;;;;;;4991737;28;20654;-42
2021/07/04 02:14:05;;;;;;;2.97;2.78;;;25.00;40.70;;;;;;4990781;28;20282;-42
2021/07/04 02:16:32;;;;;;;2.90;2.60;;;25.00;40.80;;;;;;4992111;28;20294;-39
2021/07/04 02:18:58;;;;;;;2.60;2.40;;;25.00;41.50;;;;;;4990834;28;20275;-40
2021/07/04 02:21:26;;;;;;;2.58;2.42;;;25.00;40.80;;;;;;4992268;28;20208;-42
2021/07/04 02:23:52;;;;;;;2.83;2.55;;;25.00;40.80;;;;;;4989936;28;20719;-46
2021/07/04 02:26:19;;;;;;;2.47;2.30;;;25.00;40.70;;;;;;4992396;28;20307;-38
2021/07/04 02:28:45;;;;;;;2.35;2.15;;;25.00;40.80;;;;;;4990246;28;20242;-38
2021/07/04 02:31:12;;;;;;;2.95;2.75;;;25.00;40.80;;;;;;4990887;28;20302;-39
2021/07/04 02:33:38;;;;;;;2.60;2.40;;;25.00;40.70;;;;;;4989682;28;20222;-38
2021/07/04 02:36:04;;;;;;;2.70;2.50;;;25.00;40.70;;;;;;4989176;28;20634;-40
2021/07/04 02:38:31;;;;;;;2.28;2.08;;;25.00;40.70;;;;;;4990206;28;20673;-42
2021/07/04 02:40:58;;;;;;;2.60;2.40;;;25.00;40.70;;;;;;4991575;28;20207;-40
2021/07/04 02:43:24;;;;;;;2.45;2.25;;;25.00;40.70;;;;;;4990312;28;20286;-42
2021/07/04 02:45:51;;;;;;;2.47;2.28;;;25.00;40.70;;;;;;4991447;28;20290;-43
2021/07/04 02:48:17;;;;;;;2.38;2.20;;;25.00;40.80;;;;;;4989535;28;20231;-41
2021/07/04 02:50:44;;;;;;;2.45;2.25;;;25.00;40.70;;;;;;4991265;28;20200;-37
2021/07/04 02:53:10;;;;;;;2.45;2.25;;;25.00;40.80;;;;;;4989844;28;20204;-41
2021/07/04 02:55:37;;;;;;;2.53;2.33;;;25.00;40.70;;;;;;4989263;28;20228;-41
2021/07/04 02:58:03;;;;;;;2.78;2.55;;;25.00;40.70;;;;;;4990979;28;20212;-43
2021/07/04 03:00:30;;;;;;;2.50;2.30;;;25.00;41.00;;;;;;4990660;28;20210;-45
2021/07/04 03:02:56;;;;;;;2.90;2.60;;;25.00;41.00;;;;;;4989984;28;20210;-36
2021/07/04 03:05:22;;;;;;;2.33;2.15;;;25.00;41.10;;;;;;4989590;28;20234;-38
2021/07/04 03:07:49;;;;;;;2.50;2.30;;;25.00;41.10;;;;;;4991113;28;20204;-46
2021/07/04 03:10:15;;;;;;;2.85;2.33;;;25.00;41.20;;;;;;4988272;28;20203;-41
2021/07/04 03:12:42;;;;;;;3.58;2.40;;;25.00;41.20;;;;;;4990506;28;20210;-37
2021/07/04 03:15:08;;;;;;;2.42;2.22;;;25.00;41.30;;;;;;4989650;28;20226;-50
2021/07/04 03:17:35;;;;;;;2.40;2.20;;;25.00;41.30;;;;;;4990836;28;20290;-46
2021/07/04 03:20:01;;;;;;;2.88;2.60;;;25.00;41.40;;;;;;4989466;28;20210;-46
2021/07/04 03:22:27;;;;;;;2.53;2.33;;;25.00;41.40;;;;;;5004861;23;20200;-55
2021/07/04 03:24:54;;;;;;;2.75;2.30;;;25.00;41.40;;;;;;4985914;28;20693;-42
2021/07/04 03:27:20;;;;;;;2.65;2.45;;;25.00;41.50;;;;;;4991290;28;20654;-41
2021/07/04 03:29:47;;;;;;;2.80;2.60;;;25.00;41.50;;;;;;4986109;28;20719;-42
2021/07/04 03:32:13;;;;;;;2.47;2.28;;;25.00;41.50;;;;;;4991473;28;20570;-43
2021/07/04 03:34:40;;;;;;;2.90;2.40;;;25.00;41.50;;;;;;4989918;28;20608;-41
2021/07/04 03:37:06;;;;;;;2.50;2.30;;;25.00;41.50;;;;;;4987032;28;20223;-50
2021/07/04 03:39:32;;;;;;;2.40;2.15;;;25.00;41.60;;;;;;4990504;28;20329;-42
2021/07/04 03:41:59;;;;;;;3.05;2.33;;;25.00;41.60;;;;;;4991028;28;20196;-42
2021/07/04 03:44:25;;;;;;;2.67;2.33;;;25.00;41.60;;;;;;4987983;28;20247;-43
2021/07/04 03:46:52;;;;;;;2.53;2.33;;;25.00;41.60;;;;;;4991190;28;20283;-45
2021/07/04 03:49:18;;;;;;;2.45;2.25;;;25.00;41.60;;;;;;4988629;28;20254;-47
2021/07/04 03:51:45;;;;;;;3.03;2.33;;;25.00;41.60;;;;;;4990790;28;20632;-44
2021/07/04 03:54:11;;;;;;;2.90;2.47;;;25.00;41.70;;;;;;4988660;28;20253;-44
2021/07/04 03:56:38;;;;;;;3.00;2.55;;;25.00;41.70;;;;;;4989616;28;20656;-44
2021/07/04 03:59:04;;;;;;;2.35;2.20;;;25.00;41.60;;;;;;4990901;28;20682;-42
2021/07/04 04:01:30;;;;;;;2.45;2.28;;;25.00;41.70;;;;;;4993048;28;20238;-46
2021/07/04 04:03:57;;;;;;;2.53;2.22;;;25.00;42.40;;;;;;4994479;28;20249;-46
2021/07/04 04:06:23;;;;;;;2.40;2.20;;;25.00;41.60;;;;;;4993937;28;20213;-45
2021/07/04 04:08:50;;;;;;;2.60;2.40;;;25.00;41.60;;;;;;4992277;28;20253;-40
2021/07/04 04:11:16;;;;;;;2.05;1.95;;;25.00;41.60;;;;;;4980693;28;20344;-53
2021/07/04 04:13:43;;;;;;;2.60;2.40;;;25.00;41.60;;;;;;4993589;28;20241;-49
2021/07/04 04:16:09;;;;;;;3.35;2.35;;;25.00;41.60;;;;;;4993861;28;20210;-43
2021/07/04 04:18:37;;;;;;;2.08;1.88;;;25.00;41.60;;;;;;4993924;28;20203;-45
2021/07/04 04:21:03;;;;;;;2.50;2.30;;;25.00;41.60;;;;;;4994805;28;20210;-47
2021/07/04 04:23:30;;;;;;;2.65;2.45;;;25.00;41.60;;;;;;4993075;28;20234;-46
2021/07/04 04:25:56;;;;;;;2.75;2.55;;;25.00;41.60;;;;;;4993365;28;20202;-46
2021/07/04 04:28:23;;;;;;;2.20;2.10;;;25.00;41.60;;;;;;4994417;28;20232;-50
2021/07/04 04:30:49;;;;;;;2.47;1.98;;;25.00;41.60;;;;;;4993400;28;20612;-47
2021/07/04 04:33:15;;;;;;;2.50;2.30;;;25.00;41.60;;;;;;4993966;28;20637;-44
2021/07/04 04:35:42;;;;;;;3.08;2.47;;;25.00;41.60;;;;;;4993724;28;20573;-45
2021/07/04 04:38:08;;;;;;;2.50;2.30;;;25.00;41.60;;;;;;4993827;28;20199;-54
2021/07/04 04:40:35;;;;;;;2.50;2.30;;;25.00;41.60;;;;;;4993653;28;20204;-53
2021/07/04 04:43:01;;;;;;;2.80;2.30;;;25.00;41.60;;;;;;4993326;28;20199;-49
2021/07/04 04:45:28;;;;;;;2.55;2.35;;;25.00;41.60;;;;;;4993395;28;20218;-52
2021/07/04 04:47:54;;;;;;;2.40;2.22;;;25.00;41.60;;;;;;4993581;28;20214;-43
2021/07/04 04:50:21;;;;;;;4.35;2.60;;;25.00;41.60;;;;;;4993139;28;20667;-47
2021/07/04 04:52:47;;;;;;;2.70;2.50;;;25.00;41.60;;;;;;4992866;28;20974;-41
2021/07/04 04:55:13;;;;;;;2.42;2.22;;;25.00;41.50;;;;;;4992973;28;20746;-41
2021/07/04 04:57:40;;;;;;;2.78;2.38;;;25.00;41.50;;;;;;4992795;28;20636;-50
2021/07/04 05:00:07;;;;;;;2.65;2.30;;;25.00;41.70;;;;;;4992478;28;20568;-49
2021/07/04 05:02:33;;;;;;;2.58;2.38;;;25.00;41.70;;;;;;4992724;28;20297;-53
2021/07/04 05:04:59;;;;;;;2.47;2.30;;;25.00;41.70;;;;;;4993543;28;20306;-46
2021/07/04 05:07:26;;;;;;;2.78;2.58;;;25.00;41.70;;;;;;4993253;28;20200;-51
2021/07/04 05:09:52;;;;;;;3.05;2.75;;;25.00;41.70;;;;;;4992677;28;20272;-48
2021/07/04 05:12:19;;;;;;;2.45;2.08;;;25.00;41.70;;;;;;4991594;28;20200;-45
2021/07/04 05:14:45;;;;;;;2.30;2.10;;;25.00;41.70;;;;;;4992491;28;20232;-45
2021/07/04 05:17:12;;;;;;;2.20;2.05;;;25.00;41.60;;;;;;4992927;28;20299;-45
2021/07/04 05:19:38;;;;;;;2.20;2.00;;;25.00;41.60;;;;;;4992506;28;20681;-41
2021/07/04 05:22:04;;;;;;;2.60;2.40;;;25.00;41.60;;;;;;4993427;28;20237;-51
2021/07/04 05:24:31;;;;;;;3.40;2.25;;;25.00;41.60;;;;;;4991681;28;20694;-44
2021/07/04 05:26:57;;;;;;;2.10;1.90;;;25.00;41.60;;;;;;4993554;28;20222;-43
2021/07/04 05:29:24;;;;;;;3.05;2.40;;;25.00;41.60;;;;;;4992334;28;20223;-43
2021/07/04 05:31:50;;;;;;;2.53;2.08;;;25.00;41.60;;;;;;4993279;28;20207;-41
2021/07/04 05:34:17;;;;;;;2.47;2.28;;;25.00;41.50;;;;;;4991374;28;20238;-41
2021/07/04 05:36:46;;;;;;;2.45;1.98;;;25.00;41.50;;;;;;4993500;28;20298;-42
2021/07/04 05:39:12;;;;;;;2.25;2.05;;;25.00;41.50;;;;;;4991588;28;20208;-41
2021/07/04 05:41:39;;;;;;;2.33;2.13;;;25.00;41.50;;;;;;4993200;28;20215;-43
2021/07/04 05:44:05;;;;;;;2.47;2.25;;;25.00;41.50;;;;;;4992181;28;20326;-47
2021/07/04 05:46:32;;;;;;;2.70;2.30;;;25.00;41.50;;;;;;4991904;28;20204;-44
2021/07/04 05:48:58;;;;;;;2.30;2.13;;;25.00;41.50;;;;;;4992795;28;20219;-43
2021/07/04 05:51:25;;;;;;;2.45;2.25;;;25.00;41.50;;;;;;4992397;28;20215;-42
2021/07/04 05:53:51;;;;;;;2.47;2.28;;;25.00;41.50;;;;;;4992038;28;20220;-47
2021/07/04 05:56:18;;;;;;;2.38;1.88;;;25.00;41.50;;;;;;4991488;28;20295;-41
2021/07/04 05:58:44;;;;;;;2.17;2.00;;;25.00;41.50;;;;;;4993110;28;20208;-40
2021/07/04 06:01:11;;;;;;;2.80;2.60;;;25.00;41.50;;;;;;4990718;28;20299;-40
2021/07/04 06:03:37;;;;;;;2.50;2.30;;;25.00;41.50;;;;;;4991401;28;20727;-40
2021/07/04 06:06:04;;;;;;;2.70;2.42;;;25.00;41.50;;;;;;4991731;28;20214;-41
2021/07/04 06:08:30;;;;;;;2.75;2.45;;;25.00;41.50;;;;;;4992035;28;20222;-40
2021/07/04 06:10:56;;;;;;;2.60;2.40;;;25.00;41.50;;;;;;4986001;28;20570;-40
2021/07/04 06:13:23;;;;;;;2.67;2.47;;;25.00;41.50;;;;;;4989650;28;20591;-40
2021/07/04 06:15:49;;;;;;;2.10;2.00;;;25.00;41.50;;;;;;4991643;28;20597;-40
2021/07/04 06:18:16;;;;;;;2.50;2.30;;;25.00;41.50;;;;;;4991712;28;20207;-40
2021/07/04 06:20:42;;;;;;;2.40;2.20;;;25.00;41.50;;;;;;4991227;28;20291;-41
2021/07/04 06:23:09;;;;;;;3.47;2.30;;;25.10;41.50;;;;;;4990763;28;20323;-40
2021/07/04 06:25:35;;;;;;;2.00;1.90;;;25.00;41.40;;;;;;4991785;28;20200;-40
2021/07/04 06:28:02;;;;;;;2.75;2.08;;;25.00;41.40;;;;;;4977329;28;20206;-40
2021/07/04 06:30:28;;;;;;;2.20;2.10;;;25.00;41.40;;;;;;4991220;28;20238;-40
2021/07/04 06:32:54;;;;;;;2.72;2.40;;;25.00;41.40;;;;;;4991264;28;20206;-41
2021/07/04 06:35:21;;;;;;;2.50;2.30;;;25.00;41.40;;;;;;4991291;28;20200;-40
2021/07/04 06:37:47;;;;;;;2.40;2.20;;;25.00;41.40;;;;;;4991663;28;20208;-40
2021/07/04 06:40:14;;;;;;;2.30;2.10;;;25.00;41.40;;;;;;4991597;28;20196;-41
2021/07/04 06:42:40;;;;;;;2.08;1.88;;;25.00;41.40;;;;;;4988260;28;20223;-41
2021/07/04 06:45:09;;;;;;;2.20;2.00;;;25.00;41.40;;;;;;4989992;28;20198;-44
2021/07/04 06:47:35;;;;;;;4.18;2.42;;;25.00;41.40;;;;;;4991309;28;20208;-45
2021/07/04 06:50:02;;;;;;;2.42;2.17;;;25.00;41.40;;;;;;4990295;28;20223;-44
2021/07/04 06:52:28;;;;;;;2.38;2.17;;;25.00;41.30;;;;;;4991745;28;20203;-42
2021/07/04 06:54:55;;;;;;;2.45;2.25;;;25.00;41.40;;;;;;4991293;28;20200;-46
2021/07/04 06:57:27;;;;;;;2.40;2.20;;;25.00;41.30;;;;;;4991453;28;20200;-40
2021/07/04 06:59:56;;;;;;;2.08;1.98;;;25.00;41.30;;;;;;4990779;28;20208;-48
2021/07/04 07:02:22;;;;;;;2.38;2.17;;;25.00;41.30;;;;;;4991243;28;20230;-45
2021/07/04 07:04:49;;;;;;;2.50;2.30;;;25.10;41.40;;;;;;4990936;28;20214;-43
2021/07/04 07:07:15;;;;;;;2.15;2.00;;;25.00;41.20;;;;;;4990947;28;20198;-40
2021/07/04 07:09:42;;;;;;;2.00;1.90;;;25.10;41.20;;;;;;4990883;28;20342;-40
2021/07/04 07:12:08;;;;;;;3.50;1.90;;;25.10;41.20;;;;;;4985898;28;20222;-41
2021/07/04 07:14:34;;;;;;;4.40;2.20;;;25.00;40.80;;;;;;4980588;28;20220;-41
2021/07/04 07:17:01;;;;;;;2.70;2.10;;;25.00;41.10;;;;;;4985138;28;20218;-42
2021/07/04 07:19:27;;;;;;;2.67;2.03;;;25.10;41.50;;;;;;4994837;28;20206;-40
2021/07/04 07:21:54;;;;;;;2.83;2.00;;;25.10;41.70;;;;;;4990051;28;20206;-43
2021/07/04 07:24:20;;;;;;;2.85;2.20;;;25.10;41.70;;;;;;4990098;28;20246;-40
2021/07/04 07:26:47;;;;;;;2.67;2.35;;;25.10;41.70;;;;;;4990006;28;20208;-44
2021/07/04 07:29:13;;;;;;;7.22;3.08;;;25.10;41.60;;;;;;4990348;28;20315;-41
2021/07/04 07:31:40;;;;;;;3.95;3.55;;;25.10;41.60;;;;;;4991100;28;20205;-40
2021/07/04 07:34:06;;;;;;;3.60;3.30;;;24.60;43.40;;;;;;4988881;28;20219;-40
2021/07/04 07:36:32;;;;;;;3.40;3.10;;;24.40;44.20;;;;;;4988158;28;20617;-39
2021/07/04 07:38:59;;;;;;;4.03;3.53;;;24.30;44.80;;;;;;4990010;28;20232;-45
2021/07/04 07:41:25;;;;;;;4.45;3.47;;;24.40;45.30;;;;;;4984260;28;20840;-45
2021/07/04 07:43:52;;;;;;;4.00;3.42;;;24.20;45.20;;;;;;4987725;28;20283;-40
2021/07/04 07:46:18;;;;;;;4.65;3.03;;;24.10;45.40;;;;;;4990069;28;20211;-41
2021/07/04 07:48:45;;;;;;;3.88;3.58;;;24.20;45.30;;;;;;4988763;28;20217;-40
2021/07/04 07:51:13;;;;;;;3.70;3.40;;;24.40;44.90;;;;;;4989994;28;20238;-40
2021/07/04 07:53:40;;;;;;;3.45;3.15;;;24.60;44.60;;;;;;4981476;28;20597;-39
2021/07/04 07:56:06;;;;;;;3.30;3.00;;;24.70;44.40;;;;;;4990424;28;20629;-39
2021/07/04 07:58:33;;;;;;;3.25;2.92;;;24.70;43.90;;;;;;4990306;28;20302;-40
2021/07/04 08:00:59;;;;;;;3.03;2.80;;;24.80;43.60;;;;;;4988162;28;20218;-42
2021/07/04 08:03:26;;;;;;;2.53;2.33;;;24.80;43.60;;;;;;4989218;28;20326;-39
2021/07/04 08:05:52;;;;;;;2.67;2.47;;;24.90;43.60;;;;;;4990719;28;20258;-39
2021/07/04 08:08:18;;;;;;;5.82;2.70;;;24.90;43.40;;;;;;4990139;28;20269;-44
2021/07/04 08:10:45;;;;;;;2.72;2.53;;;24.90;43.30;;;;;;4990178;28;20241;-40
2021/07/04 08:13:11;;;;;;;2.50;2.30;;;24.90;43.20;;;;;;4989359;28;20239;-40
2021/07/04 08:15:38;;;;;;;2.50;2.30;;;24.90;43.00;;;;;;4987940;28;20282;-40
2021/07/04 08:18:04;;;;;;;2.60;2.40;;;24.90;42.80;;;;;;4989958;28;20197;-44
2021/07/04 08:20:32;;;;;;;2.75;2.55;;;24.90;42.70;;;;;;4987664;28;20208;-42
2021/07/04 08:22:58;;;;;;;2.50;2.30;;;24.90;42.60;;;;;;4988746;28;20247;-38
2021/07/04 08:25:25;;;;;;;2.60;2.40;;;24.90;42.60;;;;;;4990252;28;20204;-40
2021/07/04 08:27:51;;;;;;;2.97;2.70;;;24.90;42.60;;;;;;4988193;28;20207;-43
2021/07/04 08:30:18;;;;;;;2.20;2.10;;;24.90;42.70;;;;;;4988792;28;20285;-48
2021/07/04 08:32:44;;;;;;;2.22;2.13;;;24.90;42.20;;;;;;4984732;28;20228;-46
2021/07/04 08:35:11;;;;;;;4.03;2.47;;;24.80;42.10;;;;;;4989236;28;20299;-45
2021/07/04 08:37:37;;;;;;;2.20;2.05;;;24.80;42.10;;;;;;4989249;28;20294;-44
2021/07/04 08:40:04;;;;;;;2.35;2.00;;;24.70;41.60;;;;;;4990265;28;20298;-49
2021/07/04 08:42:30;;;;;;;2.50;2.30;;;24.70;41.30;;;;;;4988910;28;20230;-43
2021/07/04 08:44:56;;;;;;;2.30;2.10;;;24.80;41.30;;;;;;4985857;28;20230;-49
2021/07/04 08:47:23;;;;;;;2.13;2.00;;;24.80;41.70;;;;;;4990829;28;20204;-45
2021/07/04 08:49:49;;;;;;;2.08;1.98;;;24.70;41.50;;;;;;4993313;28;20326;-39
2021/07/04 08:52:16;;;;;;;2.25;2.10;;;24.80;41.50;;;;;;4989813;28;20806;-43
2021/07/04 08:54:42;;;;;;;2.83;2.05;;;24.80;41.40;;;;;;4993027;28;20597;-40
2021/07/04 08:57:09;;;;;;;2.38;2.03;;;24.70;41.00;;;;;;4993100;28;20576;-43
2021/07/04 08:59:36;;;;;;;2.17;1.98;;;24.80;40.80;;;;;;4988090;28;20219;-41
2021/07/04 09:02:02;;;;;;;2.20;2.10;;;24.80;40.70;;;;;;4991193;28;20676;-39
2021/07/04 09:04:29;;;;;;;2.58;1.77;;;24.80;40.70;;;;;;4993705;28;20262;-43
2021/07/04 09:06:56;;;;;;;2.75;2.05;;;24.80;40.70;;;;;;4991891;28;20254;-40
2021/07/04 09:09:23;;;;;;;2.45;2.13;;;24.90;40.80;;;;;;4985770;28;20200;-40
2021/07/04 09:11:50;;;;;;;1.80;1.70;;;24.80;40.80;;;;;;4991713;28;20207;-40
2021/07/04 09:14:16;;;;;;;2.25;2.10;;;24.80;40.70;;;;;;4992076;28;20807;-43
2021/07/04 09:16:42;;;;;;;2.05;1.95;;;24.80;40.80;;;;;;4990859;28;20560;-41
2021/07/04 09:19:09;;;;;;;2.10;1.95;;;24.80;40.80;;;;;;4991689;28;20218;-40
2021/07/04 09:21:35;;;;;;;2.00;1.90;;;24.80;40.80;;;;;;4991755;28;20210;-44
2021/07/04 09:24:02;;;;;;;3.05;1.73;;;24.80;40.70;;;;;;4990281;28;20234;-39
2021/07/04 09:26:28;;;;;;;2.47;1.80;;;24.80;40.70;;;;;;4993234;28;20214;-41
2021/07/04 09:28:55;;;;;;;2.03;1.90;;;24.80;40.40;;;;;;4987290;28;20208;-39
2021/07/04 09:31:21;;;;;;;2.20;1.98;;;24.80;40.30;;;;;;4991722;28;20737;-38
2021/07/04 09:33:48;;;;;;;8.52;2.20;;;24.80;40.30;;;;;;4992824;28;20592;-44
2021/07/04 09:36:14;;;;;;;2.67;2.08;;;24.80;40.80;;;;;;4992475;28;20222;-39
2021/07/04 09:38:41;;;;;;;2.00;1.90;;;24.80;41.90;;;;;;4990741;28;20235;-39
2021/07/04 09:41:07;;;;;;;1.55;1.45;;;24.80;41.70;;;;;;4990076;28;20264;-40
2021/07/04 09:43:34;;;;;;;2.28;2.05;;;24.80;41.30;;;;;;4992183;28;20374;-40
2021/07/04 09:46:00;;;;;;;1.73;1.60;;;24.90;41.30;;;;;;4990605;28;20283;-40
2021/07/04 09:48:27;;;;;;;2.10;1.90;;;24.90;41.80;;;;;;4989918;28;20200;-46
2021/07/04 09:50:53;;;;;;;1.88;1.75;;;24.90;41.90;;;;;;4980402;28;20242;-43
2021/07/04 09:53:20;;;;;;;2.30;2.10;;;24.90;42.30;;;;;;4992154;28;20263;-46
2021/07/04 09:55:50;;;;;;;2.03;1.83;;;24.90;41.80;;;;;;4992244;28;20246;-39
2021/07/04 09:58:17;;;;;;;2.22;2.03;;;24.90;41.30;;;;;;4992084;28;20212;-43
2021/07/04 10:00:43;;;;;;;2.17;2.08;;;24.90;41.30;;;;;;5004842;28;20374;-44
2021/07/04 10:03:11;;;;;;;1.73;1.63;;;24.90;41.10;;;;;;5002948;28;20220;-39
2021/07/04 10:05:37;;;;;;;2.30;2.10;;;24.90;41.30;;;;;;4990336;28;20234;-46
2021/07/04 10:08:04;;;;;;;1.92;1.83;;;24.90;41.70;;;;;;4989189;28;20524;-49
2021/07/04 10:10:30;;;;;;;2.45;1.98;;;24.90;41.50;;;;;;4988512;28;20235;-45
2021/07/04 10:12:57;;;;;;;2.83;1.98;;;24.90;41.40;;;;;;4989070;28;20223;-40
2021/07/04 10:15:23;;;;;;;1.80;1.70;;;24.90;40.70;;;;;;4983663;28;20718;-43
2021/07/04 10:17:50;;;;;;;2.10;1.90;;;24.90;41.80;;;;;;4983146;28;20315;-42
2021/07/04 10:20:16;;;;;;;4.28;2.10;;;24.90;42.00;;;;;;4982868;28;20211;-40
2021/07/04 10:22:42;;;;;;;2.70;1.98;;;24.90;41.90;;;;;;4986491;28;20239;-44
2021/07/04 10:25:09;;;;;;;2.00;1.90;;;25.00;42.40;;;;;;4981189;28;20360;-45
2021/07/04 10:27:35;;;;;;;1.98;1.88;;;24.90;42.30;;;;;;4981076;28;20283;-43
2021/07/04 10:30:02;;;;;;;2.17;1.98;;;25.00;42.10;;;;;;4981535;28;20902;-44
2021/07/04 10:32:28;;;;;;;1.98;1.88;;;25.00;42.20;;;;;;4984651;28;20710;-46
2021/07/04 10:34:55;;;;;;;2.83;2.10;;;25.00;42.40;;;;;;4983246;28;20571;-41
2021/07/04 10:37:21;;;;;;;2.50;2.30;;;25.00;42.00;;;;;;4985590;28;20201;-44
2021/07/04 10:39:48;;;;;;;2.05;1.95;;;25.00;42.10;;;;;;4986852;28;20315;-45
2021/07/04 10:42:14;;;;;;;2.92;2.13;;;25.00;42.20;;;;;;4982574;28;20226;-45
2021/07/04 10:44:41;;;;;;;2.35;2.15;;;25.00;42.10;;;;;;4983537;28;20306;-43
2021/07/04 10:47:06;;;;;;;2.17;2.00;;;25.00;41.90;;;;;;4983790;28;20204;-43
2021/07/04 10:49:33;;;;;;;2.50;2.13;;;25.00;41.70;;;;;;4981697;28;20282;-42
2021/07/04 10:51:59;;;;;;;2.15;1.95;;;25.00;42.10;;;;;;4982980;28;20671;-46
2021/07/04 10:54:26;;;;;;;3.63;2.22;;;25.10;42.00;;;;;;4982364;28;20286;-40
2021/07/04 10:56:52;;;;;;;2.38;2.00;;;25.10;41.50;;;;;;4982592;28;20205;-41
2021/07/04 10:59:18;;;;;;;2.70;1.90;;;25.10;41.50;;;;;;4982643;28;20214;-41
2021/07/04 11:01:45;;;;;;;2.35;2.15;;;25.10;41.80;;;;;;4987337;28;20409;-55
2021/07/04 11:04:11;;;;;;;2.40;2.20;;;25.10;42.50;;;;;;4985199;28;20612;-46
2021/07/04 11:06:38;;;;;;;2.35;2.15;;;25.10;42.30;;;;;;4989013;28;20590;-40
2021/07/04 11:09:04;;;;;;;2.15;1.90;;;25.10;42.00;;;;;;4984245;28;20275;-44
2021/07/04 11:11:31;;;;;;;2.58;2.38;;;25.10;41.30;;;;;;4983564;28;20232;-41
2021/07/04 11:13:57;;;;;;;2.38;2.13;;;25.10;41.20;;;;;;4983904;28;20227;-48
2021/07/04 11:16:24;;;;;;;2.25;1.85;;;25.10;41.20;;;;;;4987577;28;20214;-42
2021/07/04 11:18:52;;;;;;;2.10;1.90;;;25.10;41.30;;;;;;4986099;28;20251;-46
2021/07/04 11:21:18;;;;;;;2.30;2.10;;;25.10;41.10;;;;;;4987065;28;20633;-42
2021/07/04 11:23:46;;;;;;;2.25;1.90;;;25.10;41.50;;;;;;4989070;28;20210;-43
2021/07/04 11:26:12;;;;;;;1.90;1.80;;;25.10;41.40;;;;;;4989786;28;20208;-42
2021/07/04 11:28:39;;;;;;;2.30;2.10;;;25.10;41.30;;;;;;4985338;28;20398;-41
2021/07/04 11:31:07;;;;;;;1.92;1.83;;;25.10;41.10;;;;;;4987230;28;20235;-40
2021/07/04 11:33:35;;;;;;;2.00;1.80;;;25.10;41.00;;;;;;4988198;28;20204;-44
2021/07/04 11:36:02;;;;;;;2.20;2.00;;;25.10;41.50;;;;;;4984731;28;20200;-42
2021/07/04 11:38:28;;;;;;;2.03;1.92;;;25.10;41.30;;;;;;4985075;28;20214;-40
2021/07/04 11:40:55;;;;;;;2.35;2.15;;;25.10;41.00;;;;;;4983260;28;20291;-41
2021/07/04 11:43:21;;;;;;;2.35;2.10;;;25.10;41.10;;;;;;4985700;28;20234;-52
2021/07/04 11:45:48;;;;;;;3.17;2.40;;;25.10;41.00;;;;;;4987626;28;20566;-50
2021/07/04 11:48:14;;;;;;;2.85;2.65;;;25.20;41.20;;;;;;4985074;28;20543;-46
2021/07/04 11:50:41;;;;;;;2.65;2.42;;;25.20;41.00;;;;;;4984559;28;20254;-47
2021/07/04 11:53:07;;;;;;;2.38;1.95;;;25.20;41.00;;;;;;4983954;28;20299;-47
2021/07/04 11:55:34;;;;;;;2.55;2.08;;;25.10;40.90;;;;;;4983848;28;20231;-40
2021/07/04 11:58:00;;;;;;;1.85;1.75;;;25.20;41.00;;;;;;4983122;28;20196;-43
2021/07/04 12:00:27;;;;;;;2.50;2.30;;;25.20;41.00;;;;;;4984526;28;20294;-47
2021/07/04 12:02:55;;;;;;;2.55;2.25;;;25.10;40.80;;;;;;4980722;28;20238;-45
2021/07/04 12:05:21;;;;;;;3.35;2.15;;;25.20;40.90;;;;;;4985758;28;20208;-48
2021/07/04 12:07:48;;;;;;;1.80;1.70;;;25.20;40.90;;;;;;4984013;28;20222;-42
2021/07/04 12:10:15;;;;;;;2.55;2.17;;;25.10;41.20;;;;;;4983693;28;20633;-44
2021/07/04 12:12:41;;;;;;;2.30;2.10;;;25.20;41.10;;;;;;4985155;28;20596;-39
2021/07/04 12:15:08;;;;;;;2.40;2.20;;;25.20;41.10;;;;;;4983671;28;20573;-39
2021/07/04 12:17:36;;;;;;;2.15;1.98;;;25.20;41.00;;;;;;4981927;28;20208;-41
2021/07/04 12:20:02;;;;;;;3.28;2.35;;;25.20;41.00;;;;;;4987560;28;20666;-40
2021/07/04 12:22:29;;;;;;;2.28;2.03;;;25.20;40.80;;;;;;4984933;28;20620;-45
2021/07/04 12:24:55;;;;;;;2.00;1.90;;;25.20;40.70;;;;;;4986010;28;20294;-45
2021/07/04 12:27:22;;;;;;;2.33;2.00;;;25.20;40.70;;;;;;4990528;28;20206;-48
2021/07/04 12:29:48;;;;;;;2.22;2.10;;;25.20;40.70;;;;;;4984875;28;20214;-42
2021/07/04 12:32:15;;;;;;;3.28;2.20;;;25.20;40.80;;;;;;4983990;28;20239;-45
2021/07/04 12:34:41;;;;;;;2.35;2.15;;;25.20;41.10;;;;;;4986084;28;20299;-43
2021/07/04 12:37:07;;;;;;;2.38;2.17;;;25.20;41.00;;;;;;4986825;28;20546;-48
2021/07/04 12:39:34;;;;;;;2.83;1.90;;;25.20;41.20;;;;;;4986285;28;20587;-46
2021/07/04 12:42:00;;;;;;;1.90;1.80;;;25.20;41.40;;;;;;4984522;28;20231;-44
2021/07/04 12:44:27;;;;;;;2.95;2.17;;;25.20;41.40;;;;;;4985321;28;20286;-42